Hauptseite
METAR-TAF:

METAR-TAF

Flughäfen :

Amman, Jordanien

Flughafen Marka International

Breite: 31-59N, Länge: 035-59E, Höhe: 767 m

Beobachtung

Neuester Wetterbericht von vor 48 Minuten, um 23:00 UTC
Wind 7 kt aus Nordwest
Temperatur 24°C
Luftfeuchtigkeit 38%
Luftdruck 1008 hPa
Sichtweite: 5000 m
trockener Dunst

METAR: OJAM 162300Z 31007KT 5000 HZ NSC 24/09 Q1008 NOSIG

Zeit: 02:48 (23:48 UTC)

Prognose

Neuester Wetterbericht von vor 26 Minuten, um 23:22 UTC
Gültige Prognose vom 17 um 00 UTC bis 18 um 06 UTC
Wind 8 kt aus West/Nordwest
Sichtweite: 6000 m
trockener Dunst
Zeitweise
vom 17 um 02 UTC bis 17 um 06 UTC
Wind 2 kt aus unterschiedlichen Richtungen
Sichtweite: 5000 m
trockener Dunst

TAF: OJAM 162322Z 1700/1806 30008KT 6000 HZ NSC TEMPO 1702/1706 VRB02KT 5000 HZ

Wetterbeobachtungen und Prognosen von mehr als 4000 Flughäfen (METAR und TAF Bericht).

Die verfügbaren Stationen werden durch gelbe und rote Markierungen auf der Karte dargestellt.

Führen Sie die Maus auf sie, um den Namen der Station zu sehen.

Darauf klicken, um die Beobachtung von Wetterbeobachtungen und Prognosen zu sehen.

Um die Karte zu ändern : klicken Sie auf den grünen Tasten mit einem schwarzen Kreuz Zum Vergrößern, auf den grünen Button mit einem Gedankenstrich zu verkleinern, oder auf die grünen Pfeile für benachbarte Karten.


METAR-TAF: